createdAt,value
2022-08-10T00:01:04.416Z,3.17
2022-08-10T00:03:08.005Z,3.00
2022-08-10T00:05:10.739Z,2.43
2022-08-10T00:07:13.441Z,2.63
2022-08-10T00:09:15.992Z,3.17
2022-08-10T00:11:19.050Z,4.33
2022-08-10T00:13:23.001Z,3.47
2022-08-10T00:15:52.301Z,4.63
2022-08-10T00:17:48.250Z,3.90
2022-08-10T00:20:04.103Z,3.83
2022-08-10T00:22:11.658Z,4.03
2022-08-10T00:24:19.828Z,2.67
2022-08-10T00:26:22.611Z,3.10
2022-08-10T00:28:25.289Z,3.70
2022-08-10T00:30:28.026Z,2.70
2022-08-10T00:32:30.753Z,3.23
2022-08-10T00:34:34.811Z,3.10
2022-08-10T00:36:37.365Z,2.73
2022-08-10T00:38:39.970Z,3.00
2022-08-10T00:40:42.695Z,3.40
2022-08-10T00:42:45.245Z,2.33
2022-08-10T00:44:50.275Z,3.90
2022-08-10T00:46:52.866Z,3.80
2022-08-10T00:49:00.300Z,2.80
2022-08-10T00:51:03.742Z,3.13
2022-08-10T00:53:06.475Z,3.00
2022-08-10T00:55:09.170Z,2.50
2022-08-10T00:57:15.521Z,2.93
2022-08-10T00:59:21.039Z,3.17
2022-08-10T01:02:09.757Z,3.13
2022-08-10T01:04:36.230Z,3.37
2022-08-10T01:06:34.521Z,2.50
2022-08-10T01:08:48.137Z,2.40
2022-08-10T01:12:39.426Z,3.20
2022-08-10T01:13:45.750Z,2.87
2022-08-10T01:16:03.174Z,3.27
2022-08-10T01:18:45.185Z,3.13
2022-08-10T01:20:59.577Z,2.83
2022-08-10T01:23:58.437Z,3.00
2022-08-10T01:26:40.477Z,3.60
2022-08-10T01:29:17.850Z,4.10
2022-08-10T01:31:28.920Z,3.30
2022-08-10T01:33:58.517Z,3.90
2022-08-10T01:36:10.218Z,3.10
2022-08-10T01:38:24.340Z,3.42
2022-08-10T01:40:32.872Z,2.70
2022-08-10T01:42:37.574Z,3.30
2022-08-10T01:44:49.877Z,4.40
2022-08-10T01:47:22.253Z,3.13
2022-08-10T01:49:27.203Z,3.30
2022-08-10T01:51:40.315Z,3.87
2022-08-10T01:54:02.929Z,3.30
2022-08-10T01:56:07.636Z,3.10
2022-08-10T01:58:11.712Z,3.00
2022-08-10T02:00:14.798Z,3.83
2022-08-10T02:02:18.044Z,4.50
2022-08-10T02:04:23.190Z,3.72
2022-08-10T02:06:28.482Z,3.20
2022-08-10T02:08:33.961Z,2.90
2022-08-10T02:10:40.157Z,3.63
2022-08-10T02:12:44.342Z,3.40
2022-08-10T02:14:59.247Z,3.10
2022-08-10T02:17:07.138Z,3.17
2022-08-10T02:19:16.466Z,3.47
2022-08-10T02:21:21.152Z,3.10
2022-08-10T02:23:29.845Z,3.60
2022-08-10T02:25:42.714Z,4.93
2022-08-10T02:27:48.384Z,3.40
2022-08-10T02:29:53.503Z,4.90
2022-08-10T02:31:56.721Z,3.83
2022-08-10T02:33:59.745Z,5.67
2022-08-10T02:36:05.816Z,4.57
2022-08-10T02:38:10.017Z,3.40
2022-08-10T02:42:18.214Z,3.07
2022-08-10T02:45:26.508Z,3.87
2022-08-10T02:45:30.950Z,4.07
2022-08-10T02:47:51.749Z,3.70
2022-08-10T02:50:08.369Z,3.23
2022-08-10T02:52:19.305Z,2.63
2022-08-10T02:54:27.141Z,3.37
2022-08-10T02:56:39.802Z,3.50
2022-08-10T02:59:01.284Z,4.17
2022-08-10T03:01:11.002Z,3.27
2022-08-10T03:03:22.442Z,4.27
2022-08-10T03:05:25.501Z,3.47
2022-08-10T03:08:00.670Z,3.93
2022-08-10T03:10:11.124Z,3.83
2022-08-10T03:12:37.531Z,3.10
2022-08-10T03:14:41.981Z,3.50
2022-08-10T03:16:46.162Z,3.20
2022-08-10T03:18:50.146Z,2.90
2022-08-10T03:20:53.518Z,3.03
2022-08-10T03:22:57.298Z,3.40
2022-08-10T03:25:01.367Z,2.73
2022-08-10T03:27:05.292Z,2.80
2022-08-10T03:29:08.717Z,3.37
2022-08-10T03:31:13.125Z,2.87
2022-08-10T03:33:17.456Z,3.40
2022-08-10T03:35:21.699Z,3.70
2022-08-10T03:37:24.634Z,4.00
2022-08-10T03:39:27.651Z,4.30
2022-08-10T03:41:36.766Z,3.80
2022-08-10T03:43:41.902Z,3.63
2022-08-10T03:45:54.844Z,4.80
2022-08-10T03:48:00.087Z,4.90
2022-08-10T03:50:45.758Z,3.97
2022-08-10T03:52:27.324Z,4.50
2022-08-10T03:54:30.153Z,4.57
2022-08-10T03:56:35.613Z,4.60
2022-08-10T03:58:38.277Z,3.93
2022-08-10T04:00:41.841Z,3.50
2022-08-10T04:02:48.313Z,4.27
2022-08-10T04:04:51.152Z,4.77
2022-08-10T04:06:57.449Z,3.50
2022-08-10T04:09:00.186Z,4.60
2022-08-10T04:11:02.761Z,4.37
2022-08-10T04:13:05.358Z,5.77
2022-08-10T04:15:08.593Z,4.30
2022-08-10T04:17:14.045Z,5.53
2022-08-10T04:19:20.551Z,5.50
2022-08-10T04:21:31.135Z,4.33
2022-08-10T04:23:40.482Z,5.37
2022-08-10T04:25:43.197Z,3.87
2022-08-10T04:27:47.026Z,4.67
2022-08-10T04:29:51.665Z,4.93
2022-08-10T04:31:54.230Z,5.20
2022-08-10T04:33:59.612Z,5.43
2022-08-10T04:36:12.695Z,5.27
2022-08-10T04:38:17.642Z,4.90
2022-08-10T04:40:25.209Z,5.17
2022-08-10T04:42:33.452Z,5.23
2022-08-10T04:44:36.327Z,5.10
2022-08-10T04:46:42.743Z,5.83
2022-08-10T04:48:59.756Z,5.70
2022-08-10T04:51:05.110Z,7.00
2022-08-10T04:53:07.709Z,5.17
2022-08-10T04:55:10.321Z,6.17
2022-08-10T04:57:12.937Z,5.30
2022-08-10T04:59:15.554Z,5.00
2022-08-10T05:01:20.714Z,5.63
2022-08-10T05:03:27.001Z,4.27
2022-08-10T05:05:29.598Z,4.67
2022-08-10T05:07:32.230Z,5.00
2022-08-10T05:10:03.045Z,5.27
2022-08-10T05:12:09.600Z,5.20
2022-08-10T05:14:12.171Z,4.60
2022-08-10T05:16:30.718Z,5.03
2022-08-10T05:18:35.988Z,6.43
2022-08-10T05:20:39.079Z,4.03
2022-08-10T05:22:44.517Z,5.13
2022-08-10T05:24:47.077Z,5.67
2022-08-10T05:27:00.397Z,3.50
2022-08-10T05:29:12.236Z,3.17
2022-08-10T05:31:14.928Z,4.10
2022-08-10T05:33:25.661Z,4.30
2022-08-10T05:35:51.931Z,3.60
2022-08-10T05:38:10.115Z,4.10
2022-08-10T05:40:16.533Z,2.87
2022-08-10T05:42:21.707Z,3.73
2022-08-10T05:44:25.286Z,5.03
2022-08-10T05:46:27.882Z,3.90
2022-08-10T05:48:55.411Z,5.47
2022-08-10T05:50:53.220Z,4.17
2022-08-10T05:52:55.815Z,3.67
2022-08-10T05:55:02.611Z,4.20
2022-08-10T05:57:05.671Z,4.60
2022-08-10T05:59:09.199Z,4.43
2022-08-10T06:01:15.348Z,4.13
2022-08-10T06:03:24.044Z,4.00
2022-08-10T06:05:31.108Z,3.80
2022-08-10T06:07:38.131Z,5.13
2022-08-10T06:09:59.734Z,3.80
2022-08-10T06:12:26.709Z,6.70
2022-08-10T06:14:48.511Z,3.10
2022-08-10T06:16:56.906Z,3.93
2022-08-10T06:19:01.145Z,4.05
2022-08-10T06:21:05.534Z,3.50
2022-08-10T06:23:08.366Z,3.97
2022-08-10T06:25:51.105Z,3.57
2022-08-10T06:27:35.991Z,4.57
2022-08-10T06:29:42.036Z,3.65
2022-08-10T06:31:50.624Z,3.28
2022-08-10T06:33:54.490Z,2.63
2022-08-10T06:35:58.279Z,3.30
2022-08-10T06:38:05.263Z,3.40
2022-08-10T06:40:08.811Z,4.47
2022-08-10T06:42:18.715Z,3.60
2022-08-10T06:44:29.375Z,4.27
2022-08-10T06:46:38.277Z,3.90
2022-08-10T06:49:13.725Z,3.43
2022-08-10T06:51:23.309Z,3.53
2022-08-10T06:53:52.736Z,4.63
2022-08-10T06:56:02.830Z,3.90
2022-08-10T06:58:07.218Z,3.10
2022-08-10T07:00:20.067Z,3.63
2022-08-10T07:02:31.769Z,4.27
2022-08-10T07:04:48.756Z,3.50
2022-08-10T07:06:52.045Z,3.93
2022-08-10T07:08:55.905Z,3.20
2022-08-10T07:10:59.691Z,5.43
2022-08-10T07:13:02.934Z,4.10
2022-08-10T07:15:09.138Z,5.17
2022-08-10T07:17:16.766Z,3.70
2022-08-10T07:19:20.515Z,3.40
2022-08-10T07:21:26.720Z,4.20
2022-08-10T07:23:56.905Z,4.67
2022-08-10T07:25:55.230Z,4.40
2022-08-10T07:28:01.837Z,4.87
2022-08-10T07:30:05.673Z,3.13
2022-08-10T07:32:09.781Z,5.93
2022-08-10T07:34:22.620Z,3.93
2022-08-10T07:36:33.523Z,4.90
2022-08-10T07:38:37.187Z,4.10
2022-08-10T07:40:42.499Z,3.53
2022-08-10T07:42:47.734Z,3.10
2022-08-10T07:44:50.953Z,3.40
2022-08-10T07:46:56.352Z,3.40
2022-08-10T07:49:18.953Z,3.17
2022-08-10T07:51:23.152Z,6.30
2022-08-10T07:53:28.691Z,3.20
2022-08-10T07:56:04.466Z,2.93
2022-08-10T07:57:58.163Z,3.30
2022-08-10T08:00:06.827Z,3.53
2022-08-10T08:02:30.851Z,3.10
2022-08-10T08:04:38.897Z,3.30
2022-08-10T08:06:43.214Z,2.40
2022-08-10T08:08:46.850Z,2.65
2022-08-10T08:10:50.707Z,2.90
2022-08-10T08:12:57.665Z,2.83
2022-08-10T08:15:01.675Z,2.58
2022-08-10T08:17:18.238Z,2.73
2022-08-10T08:19:37.540Z,1.90
2022-08-10T08:24:05.428Z,2.30
2022-08-10T08:24:30.941Z,2.00
2022-08-10T08:26:31.291Z,4.30
2022-08-10T08:28:37.958Z,2.10
2022-08-10T08:30:44.587Z,2.30
2022-08-10T08:32:52.448Z,2.07
2022-08-10T08:35:10.907Z,2.13
2022-08-10T08:38:28.853Z,3.00
2022-08-10T08:39:41.611Z,2.90
2022-08-10T08:42:24.161Z,1.60
2022-08-10T08:45:21.366Z,2.87
2022-08-10T08:48:05.782Z,2.23
2022-08-10T08:50:32.577Z,1.63
2022-08-10T08:52:55.707Z,2.07
2022-08-10T08:56:04.808Z,2.30
2022-08-10T08:58:31.376Z,2.07
2022-08-10T09:00:57.252Z,4.33
2022-08-10T09:03:28.155Z,2.90
2022-08-10T09:06:08.082Z,1.60
2022-08-10T09:08:16.275Z,2.53
2022-08-10T09:10:40.872Z,2.80
2022-08-10T09:13:08.342Z,1.87
2022-08-10T09:15:49.136Z,1.60
2022-08-10T09:18:25.949Z,1.40
2022-08-10T09:20:54.486Z,2.67
2022-08-10T09:23:03.777Z,1.50
2022-08-10T09:25:33.076Z,2.50
2022-08-10T09:28:03.713Z,1.30
2022-08-10T09:30:11.618Z,1.20
2022-08-10T09:36:15.645Z,2.10
2022-08-10T09:36:21.931Z,1.20
2022-08-10T09:38:02.410Z,1.33
2022-08-10T09:40:58.878Z,2.10
2022-08-10T09:43:25.185Z,1.80
2022-08-10T09:45:50.793Z,1.43
2022-08-10T09:48:31.148Z,2.47
2022-08-10T09:51:05.443Z,2.22
2022-08-10T09:53:27.294Z,4.47
2022-08-10T09:56:18.282Z,1.60
2022-08-10T09:59:59.380Z,1.50
2022-08-10T10:02:00.689Z,1.70
2022-08-10T10:04:22.765Z,1.80
2022-08-10T10:06:51.001Z,1.80
2022-08-10T10:09:11.044Z,1.60
2022-08-10T10:11:57.279Z,3.27
2022-08-10T10:14:30.848Z,2.33
2022-08-10T10:16:52.341Z,3.93
2022-08-10T10:19:15.831Z,1.57
2022-08-10T10:21:54.478Z,2.80
2022-08-10T10:24:27.925Z,2.97
2022-08-10T10:27:16.199Z,2.33
2022-08-10T10:29:59.568Z,2.30
2022-08-10T10:32:36.951Z,2.75
2022-08-10T10:35:36.896Z,2.50
2022-08-10T10:38:10.644Z,1.60
2022-08-10T10:40:05.453Z,2.10
2022-08-10T10:42:44.328Z,2.20
2022-08-10T10:45:50.589Z,1.50
2022-08-10T10:48:29.218Z,1.90
2022-08-10T10:51:07.185Z,1.80
2022-08-10T10:53:25.249Z,1.70
2022-08-10T10:56:14.492Z,3.15
2022-08-10T10:58:47.090Z,2.03
2022-08-10T11:01:23.061Z,1.97
2022-08-10T11:04:12.331Z,1.60
2022-08-10T11:06:52.542Z,2.07
2022-08-10T11:09:03.522Z,1.60
2022-08-10T11:12:01.750Z,1.83
2022-08-10T11:14:27.237Z,2.20
2022-08-10T11:17:01.928Z,2.37
2022-08-10T11:19:17.734Z,2.23
2022-08-10T11:21:37.759Z,3.10
2022-08-10T11:24:48.228Z,1.47
2022-08-10T11:27:01.187Z,1.97
2022-08-10T11:29:15.975Z,2.00
2022-08-10T11:31:40.906Z,3.30
2022-08-10T11:34:49.361Z,1.50
2022-08-10T11:37:03.931Z,2.47
2022-08-10T11:39:20.336Z,3.53
2022-08-10T11:42:07.132Z,1.80
2022-08-10T11:44:44.054Z,1.63
2022-08-10T11:47:05.709Z,1.80
2022-08-10T11:49:27.235Z,1.60
2022-08-10T11:51:44.010Z,1.80
2022-08-10T11:53:50.819Z,1.60
2022-08-10T11:55:59.391Z,1.30
2022-08-10T11:58:30.324Z,1.90
2022-08-10T12:00:36.866Z,1.90
2022-08-10T12:02:45.233Z,1.50
2022-08-10T12:05:02.724Z,1.43
2022-08-10T12:08:10.349Z,1.53
2022-08-10T12:10:08.982Z,1.60
2022-08-10T12:11:59.403Z,1.77
2022-08-10T12:14:50.165Z,3.53
2022-08-10T12:17:27.278Z,2.70
2022-08-10T12:20:08.786Z,2.03
2022-08-10T12:22:17.569Z,1.80
2022-08-10T12:24:52.174Z,2.33
2022-08-10T12:27:07.030Z,2.10
2022-08-10T12:29:53.242Z,2.23
2022-08-10T12:32:12.437Z,4.03
2022-08-10T12:34:31.202Z,2.57
2022-08-10T12:36:50.681Z,2.10
2022-08-10T12:39:07.336Z,2.00
2022-08-10T12:41:43.646Z,1.80
2022-08-10T12:44:09.025Z,2.37
2022-08-10T12:46:46.397Z,2.97
2022-08-10T12:49:08.411Z,2.57
2022-08-10T12:51:15.008Z,2.23
2022-08-10T12:54:02.335Z,2.30
2022-08-10T12:56:06.529Z,1.90
2022-08-10T12:58:57.305Z,4.07
2022-08-10T13:00:53.845Z,3.00
2022-08-10T13:03:03.318Z,2.17
2022-08-10T13:05:11.212Z,1.83
2022-08-10T13:08:25.361Z,2.97
2022-08-10T13:09:56.607Z,2.30
2022-08-10T13:12:44.406Z,1.63
2022-08-10T13:14:54.815Z,1.40
2022-08-10T13:17:01.744Z,1.90
2022-08-10T13:19:05.542Z,2.17
2022-08-10T13:21:20.803Z,2.20
2022-08-10T13:23:30.400Z,2.03
2022-08-10T13:25:38.719Z,2.23
2022-08-10T13:28:01.085Z,2.10
2022-08-10T13:30:07.823Z,1.70
2022-08-10T13:32:14.366Z,1.70
2022-08-10T13:34:43.337Z,2.40
2022-08-10T13:36:50.723Z,2.27
2022-08-10T13:38:57.106Z,1.60
2022-08-10T13:41:00.515Z,2.00
2022-08-10T13:43:07.283Z,2.60
2022-08-10T13:45:17.644Z,2.47
2022-08-10T13:47:31.839Z,2.00
2022-08-10T13:50:10.971Z,2.27
2022-08-10T13:52:26.656Z,2.03
2022-08-10T13:54:39.431Z,1.60
2022-08-10T13:56:47.314Z,1.40
2022-08-10T13:58:53.668Z,2.30
2022-08-10T14:00:59.491Z,1.90
2022-08-10T14:03:10.785Z,3.43
2022-08-10T14:05:14.619Z,1.87
2022-08-10T14:07:18.026Z,1.90
2022-08-10T14:09:28.974Z,1.60
2022-08-10T14:11:33.313Z,2.30
2022-08-10T14:13:41.071Z,1.80
2022-08-10T14:15:46.251Z,2.67
2022-08-10T14:17:56.602Z,2.17
2022-08-10T14:20:00.353Z,2.13
2022-08-10T14:22:06.400Z,2.53
2022-08-10T14:24:30.086Z,1.80
2022-08-10T14:26:32.822Z,1.90
2022-08-10T14:28:42.884Z,1.70
2022-08-10T14:30:49.338Z,2.53
2022-08-10T14:32:54.207Z,3.40
2022-08-10T14:36:21.750Z,1.60
2022-08-10T14:37:38.798Z,1.40
2022-08-10T14:39:51.676Z,1.53
2022-08-10T14:42:03.001Z,1.70
2022-08-10T14:44:12.690Z,1.20
2022-08-10T14:46:22.018Z,2.17
2022-08-10T14:48:34.708Z,1.90
2022-08-10T14:50:55.205Z,2.03
2022-08-10T14:53:26.907Z,2.47
2022-08-10T14:55:31.575Z,1.63
2022-08-10T14:58:16.474Z,2.37
2022-08-10T15:00:30.897Z,2.37
2022-08-10T15:02:55.933Z,2.50
2022-08-10T15:05:02.864Z,3.10
2022-08-10T15:07:11.846Z,2.47
2022-08-10T15:09:20.157Z,2.50
2022-08-10T15:12:14.803Z,2.00
2022-08-10T15:14:41.520Z,2.40
2022-08-10T15:16:13.601Z,2.13
2022-08-10T15:18:17.726Z,2.10
2022-08-10T15:20:25.489Z,2.50
2022-08-10T15:22:37.561Z,2.20
2022-08-10T15:25:00.698Z,2.00
2022-08-10T15:27:08.666Z,1.73
2022-08-10T15:29:23.217Z,1.70
2022-08-10T15:31:33.788Z,1.50
2022-08-10T15:34:04.465Z,5.70
2022-08-10T15:36:38.915Z,3.63
2022-08-10T15:38:44.573Z,2.23
2022-08-10T15:40:54.271Z,2.00
2022-08-10T15:43:20.855Z,2.10
2022-08-10T15:45:28.336Z,1.88
2022-08-10T15:47:45.633Z,1.57
2022-08-10T15:50:09.200Z,1.67
2022-08-10T15:52:39.797Z,1.40
2022-08-10T15:55:44.248Z,2.10
2022-08-10T15:57:58.843Z,2.03
2022-08-10T16:00:10.324Z,2.00
2022-08-10T16:02:18.826Z,1.73
2022-08-10T16:04:43.211Z,1.40
2022-08-10T16:07:17.397Z,1.70
2022-08-10T16:10:24.842Z,2.00
2022-08-10T16:12:03.870Z,1.53
2022-08-10T16:14:13.522Z,1.60
2022-08-10T16:16:19.495Z,3.40
2022-08-10T16:18:30.101Z,2.30
2022-08-10T16:20:53.031Z,2.33
2022-08-10T16:23:05.430Z,2.33
2022-08-10T16:25:14.722Z,2.37
2022-08-10T16:27:26.964Z,1.95
2022-08-10T16:29:32.286Z,2.80
2022-08-10T16:31:58.065Z,2.40
2022-08-10T16:34:04.394Z,2.37
2022-08-10T16:36:08.907Z,1.80
2022-08-10T16:38:13.513Z,1.80
2022-08-10T16:40:19.611Z,2.07
2022-08-10T16:42:28.138Z,1.80
2022-08-10T16:44:53.787Z,2.03
2022-08-10T16:46:57.987Z,1.63
2022-08-10T16:49:01.674Z,1.60
2022-08-10T16:51:06.220Z,3.10
2022-08-10T16:53:15.017Z,1.70
2022-08-10T16:55:24.264Z,1.93
2022-08-10T16:57:47.569Z,2.77
2022-08-10T16:59:53.621Z,2.03
2022-08-10T17:01:57.808Z,2.30
2022-08-10T17:04:10.010Z,3.03
2022-08-10T17:06:29.887Z,1.90
2022-08-10T17:08:33.038Z,1.60
2022-08-10T17:10:37.438Z,1.50
2022-08-10T17:12:41.783Z,2.07
2022-08-10T17:14:45.025Z,1.50
2022-08-10T17:16:56.632Z,3.83
2022-08-10T17:18:59.876Z,1.70
2022-08-10T17:21:23.018Z,1.80
2022-08-10T17:23:34.006Z,2.23
2022-08-10T17:25:48.309Z,1.80
2022-08-10T17:28:33.259Z,1.53
2022-08-10T17:30:32.227Z,1.70
2022-08-10T17:32:55.161Z,1.93
2022-08-10T17:35:01.888Z,1.80
2022-08-10T17:37:10.820Z,1.87
2022-08-10T17:39:16.017Z,1.63
2022-08-10T17:41:29.982Z,1.73
2022-08-10T17:44:00.830Z,1.87
2022-08-10T17:45:57.270Z,2.23
2022-08-10T17:48:05.748Z,1.80
2022-08-10T17:50:08.986Z,1.60
2022-08-10T17:52:21.457Z,2.03
2022-08-10T17:54:32.353Z,2.83
2022-08-10T17:56:37.912Z,1.63
2022-08-10T17:58:49.155Z,1.90
2022-08-10T18:01:38.765Z,1.77
2022-08-10T18:03:31.270Z,1.70
2022-08-10T18:05:35.201Z,1.73
2022-08-10T18:07:51.202Z,1.60
2022-08-10T18:09:56.539Z,1.60
2022-08-10T18:12:17.608Z,1.60
2022-08-10T18:14:22.653Z,1.60
2022-08-10T18:16:31.458Z,0.93
2022-08-10T18:18:37.835Z,0.90
2022-08-10T18:20:41.418Z,0.97
2022-08-10T18:22:49.326Z,1.13
2022-08-10T18:24:54.461Z,0.80
2022-08-10T18:27:02.039Z,1.05
2022-08-10T18:29:12.825Z,1.03
2022-08-10T18:31:25.863Z,1.20
2022-08-10T18:33:36.026Z,1.20
2022-08-10T18:35:39.711Z,1.00
2022-08-10T18:37:47.858Z,2.70
2022-08-10T18:39:55.543Z,2.80
2022-08-10T18:42:16.693Z,2.50
2022-08-10T18:44:22.675Z,2.30
2022-08-10T18:46:29.963Z,1.80
2022-08-10T18:48:43.730Z,2.00
2022-08-10T18:50:53.635Z,3.00
2022-08-10T18:53:01.813Z,3.27
2022-08-10T18:55:35.533Z,4.30
2022-08-10T18:58:16.029Z,3.50
2022-08-10T19:00:20.822Z,3.40
2022-08-10T19:02:59.598Z,4.73
2022-08-10T19:05:30.218Z,5.40
2022-08-10T19:08:13.552Z,5.53
2022-08-10T19:11:03.704Z,5.27
2022-08-10T19:13:59.080Z,4.67
2022-08-10T19:16:17.509Z,5.53
2022-08-10T19:18:42.961Z,4.00
2022-08-10T19:21:28.613Z,4.23
2022-08-10T19:23:43.998Z,3.80
2022-08-10T19:26:42.549Z,3.70
2022-08-10T19:30:09.817Z,3.63
2022-08-10T19:32:18.183Z,4.07
2022-08-10T19:34:32.361Z,4.10
2022-08-10T19:37:22.595Z,4.97
2022-08-10T19:40:09.831Z,6.13
2022-08-10T19:42:31.273Z,5.43
2022-08-10T19:44:46.199Z,5.60
2022-08-10T19:47:05.090Z,4.80
2022-08-10T19:49:43.021Z,4.50
2022-08-10T19:52:17.099Z,3.40
2022-08-10T19:54:38.205Z,3.00
2022-08-10T19:57:24.590Z,3.72
2022-08-10T20:00:02.112Z,4.90
2022-08-10T20:01:57.354Z,3.40
2022-08-10T20:04:10.161Z,1.93
2022-08-10T20:06:27.809Z,1.73
2022-08-10T20:08:47.624Z,2.00
2022-08-10T20:11:06.358Z,1.80
2022-08-10T20:13:15.280Z,2.00
2022-08-10T20:15:42.451Z,2.10
2022-08-10T20:18:00.810Z,1.90
2022-08-10T20:20:13.924Z,2.57
2022-08-10T20:22:28.686Z,2.38
2022-08-10T20:24:52.042Z,2.20
2022-08-10T20:27:13.157Z,1.90
2022-08-10T20:29:57.388Z,1.70
2022-08-10T20:32:08.222Z,1.63
2022-08-10T20:34:33.490Z,5.33
2022-08-10T20:36:54.268Z,6.30
2022-08-10T20:39:42.430Z,5.67
2022-08-10T20:42:00.631Z,4.40
2022-08-10T20:45:07.159Z,4.30
2022-08-10T20:47:32.101Z,2.80
2022-08-10T20:50:12.043Z,2.77
2022-08-10T20:52:16.494Z,2.67
2022-08-10T20:54:21.140Z,2.57
2022-08-10T20:56:59.489Z,2.50
2022-08-10T21:00:02.461Z,1.83
2022-08-10T21:02:37.649Z,2.40
2022-08-10T21:04:58.589Z,3.20
2022-08-10T21:07:44.023Z,2.43
2022-08-10T21:09:58.681Z,2.77
2022-08-10T21:12:36.336Z,2.53
2022-08-10T21:14:53.443Z,2.83
2022-08-10T21:17:27.206Z,3.67
2022-08-10T21:19:55.650Z,3.00
2022-08-10T21:22:20.805Z,3.97
2022-08-10T21:24:35.910Z,3.47
2022-08-10T21:26:55.077Z,4.07
2022-08-10T21:29:39.720Z,4.17
2022-08-10T21:31:56.880Z,3.40
2022-08-10T21:34:36.948Z,3.97
2022-08-10T21:36:52.607Z,3.63
2022-08-10T21:39:41.885Z,4.00
2022-08-10T21:42:14.877Z,4.83
2022-08-10T21:45:08.219Z,3.10
2022-08-10T21:48:30.049Z,3.93
2022-08-10T21:51:05.782Z,3.37
2022-08-10T21:53:45.233Z,5.23
2022-08-10T21:56:27.585Z,3.60
2022-08-10T21:59:02.557Z,3.87
2022-08-10T22:01:39.277Z,3.90
2022-08-10T22:04:02.194Z,3.87
2022-08-10T22:06:24.189Z,3.97
2022-08-10T22:08:58.031Z,4.33
2022-08-10T22:11:22.291Z,4.30
2022-08-10T22:13:43.753Z,4.20
2022-08-10T22:16:14.171Z,4.17
2022-08-10T22:18:53.891Z,5.03
2022-08-10T22:22:08.090Z,4.67
2022-08-10T22:25:16.423Z,3.60
2022-08-10T22:27:52.944Z,5.13
2022-08-10T22:30:18.794Z,4.70
2022-08-10T22:33:14.853Z,3.70
2022-08-10T22:36:14.472Z,4.70
2022-08-10T22:40:11.631Z,4.13
2022-08-10T22:42:14.359Z,3.87
2022-08-10T22:44:39.963Z,3.90
2022-08-10T22:47:02.511Z,3.57
2022-08-10T22:49:05.698Z,5.40
2022-08-10T22:51:24.294Z,3.60
2022-08-10T22:53:54.356Z,3.88
2022-08-10T22:56:15.320Z,4.10
2022-08-10T22:58:47.389Z,3.80
2022-08-10T23:01:07.073Z,4.23
2022-08-10T23:03:21.725Z,4.55
2022-08-10T23:05:33.812Z,5.57
2022-08-10T23:07:49.332Z,4.33
2022-08-10T23:10:01.956Z,3.90
2022-08-10T23:12:13.539Z,3.30
2022-08-10T23:14:18.599Z,4.35
2022-08-10T23:16:46.509Z,4.10
2022-08-10T23:19:11.994Z,4.10
2022-08-10T23:21:16.563Z,4.13
2022-08-10T23:23:23.469Z,4.30
2022-08-10T23:25:30.323Z,4.30
2022-08-10T23:27:40.292Z,3.63
2022-08-10T23:30:03.791Z,4.27
2022-08-10T23:32:13.485Z,4.80
2022-08-10T23:34:27.080Z,4.50
2022-08-10T23:36:35.671Z,4.37
2022-08-10T23:38:40.418Z,4.40
2022-08-10T23:40:53.962Z,4.13
2022-08-10T23:42:57.728Z,3.90
2022-08-10T23:45:01.683Z,5.07
2022-08-10T23:47:06.261Z,4.90
2022-08-10T23:49:12.373Z,3.77
2022-08-10T23:51:17.473Z,5.57
2022-08-10T23:53:34.743Z,4.30
2022-08-10T23:55:49.208Z,4.17
2022-08-10T23:58:31.596Z,4.90
